Weather History for KGMJ - September, 2013

Change the Weather History Date:

Tuesday, September 10, 2013

  Actual Average (KJLN) Record (KJLN)
Temperature  
Mean Temperature 80 °F 73 °F  
Max Temperature 95 °F 85 °F 96 °F (2000)
Min Temperature 64 °F 62 °F 43 °F (1976)
Degree Days  
Heating Degree Days 0 0  
Month to date heating degree days 0  
Since 1 July heating degree days 1  
Cooling Degree Days 14 9  
Month to date cooling degree days 102  
Year to date cooling degree days 1529  
Growing Degree Days 30 (Base 50)    
Moisture  
Dew Point 66 °F    
Average Humidity 68    
Maximum Humidity 100    
Minimum Humidity 32    
Precipitation  
Precipitation 0.00 in 0.16 in 1.43 in (1975)
Month to date precipitation 1.59  
Year to date precipitation 32.56  
Sea Level Pressure  
Sea Level Pressure 30.09 in    
Wind  
Wind Speed 2 mph (SSW)    
Max Wind Speed 13 mph    
Max Gust Speed 17 mph    
Visibility 10 miles    
Events      
T = Trace of Precipitation, MM = Missing Value Source: NWS Daily Summary

Daily Weather History Graph

Daily Weather History Graph

Search for Another Location

Airport or City:

Trip Planner

Search our weather history database for the weather conditions in past years. The results will help you decide how hot, cold, wet, or windy it might be!

Date:

Astronomy

Sep. 10, 2013 Rise Set
Actual Time 6:57 AM CDT 7:33 PM CDT
Civil Twilight 6:31 AM CDT 7:59 PM CDT
Nautical Twilight 6:00 AM CDT 8:30 PM CDT
Astronomical Twilight 5:29 AM CDT 9:01 PM CDT
Moon 12:14 PM CDT (9/10) 10:47 PM CDT (9/10)
Length of Visible Light 13h 28m
Length of Day
12h 35m
Waxing Crescent, 28% of the Moon is Illuminated
Sep 10
Waxing Crescent
Sep 12
First Quarter
Sep 19
Full
Sep 26
Last Quarter
Oct 4
New

Hourly Weather History & Observations

Time (CDT) Temp. Heat Index Dew Point Humidity Pressure Visibility Wind Dir Wind Speed Gust Speed Precip Events Conditions
12:15 AM 71.6 °F - 66.2 °F 83% 30.01 in 10.0 mi Calm Calm - N/A   Clear
12:35 AM 71.6 °F - 64.4 °F 78% 30.01 in 10.0 mi Calm Calm - N/A   Clear
12:55 AM 73.4 °F - 62.6 °F 69% 30.01 in 10.0 mi Calm Calm - N/A   Clear
1:15 AM 75.2 °F - 62.6 °F 65% 30.02 in 10.0 mi SSE 3.5 mph - N/A   Clear
1:35 AM 73.4 °F - 62.6 °F 69% 30.02 in 10.0 mi Calm Calm - N/A   Clear
1:55 AM 69.8 °F - 64.4 °F 83% 30.02 in 10.0 mi Calm Calm - N/A   Clear
2:15 AM 68.0 °F - 66.2 °F 94% 30.03 in 10.0 mi Calm Calm - N/A   Clear
2:35 AM 69.8 °F - 64.4 °F 83% 30.03 in 10.0 mi Calm Calm - N/A   Clear
2:55 AM 68.0 °F - 68.0 °F 100% 30.04 in 10.0 mi Calm Calm - N/A   Clear
3:15 AM 69.8 °F - 69.8 °F 100% 30.04 in 10.0 mi Calm Calm - N/A   Clear
3:35 AM 68.0 °F - 68.0 °F 100% 30.04 in 10.0 mi Calm Calm - N/A   Clear
3:55 AM 68.0 °F - 68.0 °F 100% 30.04 in 10.0 mi Calm Calm - N/A   Clear
4:15 AM 68.0 °F - 68.0 °F 100% 30.05 in 10.0 mi Calm Calm - N/A   Clear
4:35 AM 68.0 °F - 68.0 °F 100% 30.05 in 10.0 mi Calm Calm - N/A   Clear
4:55 AM 68.0 °F - 68.0 °F 100% 30.05 in 10.0 mi Calm Calm - N/A   Clear
5:15 AM 68.0 °F - 68.0 °F 100% 30.06 in 7.0 mi Calm Calm - N/A   Clear
5:35 AM 68.0 °F - 68.0 °F 100% 30.06 in 10.0 mi Calm Calm - N/A   Clear
5:55 AM 68.0 °F - 68.0 °F 100% 30.07 in 10.0 mi Calm Calm - N/A   Clear
6:15 AM 68.0 °F - 68.0 °F 100% 30.07 in 7.0 mi Calm Calm - N/A   Clear
6:35 AM 66.2 °F - 66.2 °F 100% 30.08 in 7.0 mi Calm Calm - N/A   Clear
6:55 AM 66.2 °F - 66.2 °F 100% 30.08 in 7.0 mi Calm Calm - N/A   Clear
7:15 AM 64.4 °F - 64.4 °F 100% 30.09 in 5.0 mi Calm Calm - N/A   Clear
7:35 AM 66.2 °F - 66.2 °F 100% 30.10 in 5.0 mi Calm Calm - N/A   Clear
7:55 AM 69.8 °F - 69.8 °F 100% 30.11 in 7.0 mi Calm Calm - N/A   Clear
8:15 AM 71.6 °F - 71.6 °F 100% 30.11 in 7.0 mi Calm Calm - N/A   Clear
8:35 AM 77.0 °F - 64.4 °F 65% 30.11 in 10.0 mi South 3.5 mph - N/A   Clear
8:55 AM 78.8 °F - 64.4 °F 61% 30.12 in 10.0 mi South 6.9 mph - N/A   Clear
9:15 AM 80.6 °F 82.3 °F 64.4 °F 58% 30.12 in 10.0 mi South 9.2 mph - N/A   Clear
9:35 AM 82.4 °F 83.9 °F 64.4 °F 54% 30.13 in 10.0 mi SSW 10.4 mph - N/A   Clear
9:55 AM 84.2 °F 85.6 °F 64.4 °F 51% 30.13 in 10.0 mi SSW 8.1 mph - N/A   Clear
10:15 AM 86.0 °F 87.3 °F 64.4 °F 48% 30.14 in 10.0 mi SSW 11.5 mph - N/A   Clear
10:35 AM 87.8 °F 89.4 °F 64.4 °F 46% 30.14 in 10.0 mi SW 10.4 mph - N/A   Clear
10:55 AM 87.8 °F 90.4 °F 66.2 °F 49% 30.14 in 10.0 mi SSW 10.4 mph - N/A   Clear
11:15 AM 87.8 °F 90.4 °F 66.2 °F 49% 30.15 in 10.0 mi SW 8.1 mph - N/A   Clear
11:35 AM 89.6 °F 93.4 °F 68.0 °F 49% 30.14 in 10.0 mi WSW 8.1 mph - N/A   Clear
11:55 AM 89.6 °F 92.2 °F 66.2 °F 46% 30.14 in 10.0 mi SW 8.1 mph - N/A   Clear
12:15 PM 89.6 °F 91.1 °F 64.4 °F 43% 30.14 in 10.0 mi SSW 10.4 mph - N/A   Clear
12:35 PM 91.4 °F 93.2 °F 64.4 °F 41% 30.14 in 10.0 mi SSW 9.2 mph - N/A   Clear
12:55 PM 91.4 °F 93.2 °F 64.4 °F 41% 30.13 in 10.0 mi SW 9.2 mph - N/A   Clear
1:15 PM 91.4 °F 94.0 °F 66.2 °F 43% 30.13 in 10.0 mi SSW 10.4 mph - N/A   Scattered Clouds
1:35 PM 93.2 °F 94.1 °F 62.6 °F 36% 30.13 in 10.0 mi SSW 9.2 mph 16.1 mph N/A   Scattered Clouds
1:55 PM 93.2 °F 94.1 °F 62.6 °F 36% 30.12 in 10.0 mi SSW 11.5 mph - N/A   Clear
2:15 PM 95.0 °F 96.0 °F 62.6 °F 34% 30.11 in 10.0 mi SSW 12.7 mph 17.3 mph N/A   Clear
2:35 PM 95.0 °F 96.0 °F 62.6 °F 34% 30.10 in 10.0 mi SW 11.5 mph - N/A   Clear
2:55 PM 95.0 °F 96.0 °F 62.6 °F 34% 30.10 in 10.0 mi SW 6.9 mph - N/A   Clear
3:15 PM 95.0 °F 96.0 °F 62.6 °F 34% 30.09 in 10.0 mi SSW 11.5 mph 16.1 mph N/A   Clear
3:35 PM 93.2 °F 94.1 °F 62.6 °F 36% 30.08 in 10.0 mi SSW 10.4 mph - N/A   Clear
3:55 PM 93.2 °F 93.3 °F 60.8 °F 34% 30.08 in 10.0 mi SSW 6.9 mph - N/A   Clear
4:15 PM 95.0 °F 95.2 °F 60.8 °F 32% 30.07 in 10.0 mi WSW 6.9 mph - N/A   Clear
4:35 PM 95.0 °F 95.2 °F 60.8 °F 32% 30.07 in 10.0 mi WSW 6.9 mph - N/A   Clear
4:55 PM 95.0 °F 95.2 °F 60.8 °F 32% 30.06 in 10.0 mi SW 4.6 mph - N/A   Clear
5:15 PM 95.0 °F 95.2 °F 60.8 °F 32% 30.06 in 10.0 mi SW 6.9 mph - N/A   Clear
5:35 PM 91.4 °F 91.4 °F 60.8 °F 36% 30.06 in 10.0 mi West 3.5 mph - N/A   Clear
5:55 PM 89.6 °F 90.1 °F 62.6 °F 40% 30.06 in 10.0 mi Calm Calm - N/A   Clear
6:15 PM 87.8 °F 90.4 °F 66.2 °F 49% 30.05 in 10.0 mi Calm Calm - N/A   Clear
6:35 PM 86.0 °F 87.3 °F 64.4 °F 48% 30.05 in 10.0 mi Calm Calm - N/A   Clear
6:55 PM 86.0 °F 90.4 °F 69.8 °F 58% 30.06 in 10.0 mi Calm Calm - N/A   Clear
7:15 PM 82.4 °F 86.3 °F 69.8 °F 66% 30.06 in 10.0 mi Calm Calm - N/A   Clear
7:35 PM 82.4 °F 86.3 °F 69.8 °F 66% 30.06 in 10.0 mi Calm Calm - N/A   Clear
7:55 PM 80.6 °F 83.9 °F 69.8 °F 70% 30.07 in 10.0 mi Calm Calm - N/A   Clear
8:15 PM 78.8 °F - 69.8 °F 74% 30.08 in 10.0 mi Calm Calm - N/A   Clear
8:35 PM 78.8 °F - 69.8 °F 74% 30.08 in 10.0 mi Calm Calm - N/A   Clear
8:55 PM 78.8 °F - 69.8 °F 74% 30.09 in 10.0 mi Calm Calm - N/A   Clear
9:15 PM 77.0 °F - 69.8 °F 78% 30.11 in 10.0 mi Calm Calm - N/A   Clear
9:35 PM 75.2 °F - 69.8 °F 83% 30.11 in 10.0 mi Calm Calm - N/A   Clear
9:55 PM 73.4 °F - 69.8 °F 88% 30.11 in 10.0 mi Calm Calm - N/A   Clear
10:15 PM 73.4 °F - 69.8 °F 88% 30.12 in 10.0 mi Calm Calm - N/A   Clear
10:35 PM 71.6 °F - 68.0 °F 88% 30.12 in 10.0 mi Calm Calm - N/A   Clear
10:55 PM 73.4 °F - 68.0 °F 83% 30.12 in 10.0 mi Calm Calm - N/A   Clear
11:15 PM 71.6 °F - 68.0 °F 88% 30.12 in 10.0 mi Calm Calm - N/A   Clear
11:35 PM 71.6 °F - 68.0 °F 88% 30.12 in 10.0 mi Calm Calm - N/A   Clear
11:55 PM 71.6 °F - 68.0 °F 88% 30.12 in 10.0 mi Calm Calm - N/A   Clear